createdAt,value
2023-03-19T00:00:43.788Z,85.50
2023-03-19T00:05:54.379Z,85.40
2023-03-19T00:10:57.669Z,85.40
2023-03-19T00:16:01.625Z,85.30
2023-03-19T00:21:07.219Z,85.00
2023-03-19T00:26:10.258Z,85.00
2023-03-19T00:31:16.538Z,84.90
2023-03-19T00:36:21.692Z,84.80
2023-03-19T00:41:25.085Z,84.70
2023-03-19T00:46:28.538Z,84.60
2023-03-19T00:51:33.201Z,84.50
2023-03-19T00:56:36.552Z,84.30
2023-03-19T01:01:39.921Z,84.20
2023-03-19T01:06:45.555Z,83.90
2023-03-19T01:11:48.582Z,83.60
2023-03-19T01:16:52.328Z,83.40
2023-03-19T01:21:57.358Z,83.70
2023-03-19T01:27:01.505Z,83.30
2023-03-19T01:32:09.922Z,83.30
2023-03-19T01:37:34.282Z,83.10
2023-03-19T01:42:54.076Z,83.10
2023-03-19T01:48:27.004Z,83.20
2023-03-19T01:53:50.272Z,83.50
2023-03-19T01:59:05.245Z,83.60
2023-03-19T02:04:35.238Z,83.80
2023-03-19T02:09:41.130Z,83.80
2023-03-19T02:14:44.524Z,84.10
2023-03-19T02:19:55.313Z,84.30
2023-03-19T02:25:03.678Z,84.30
2023-03-19T02:30:23.850Z,84.40
2023-03-19T02:35:27.985Z,84.30
2023-03-19T02:40:35.493Z,84.30
2023-03-19T02:45:40.677Z,84.20
2023-03-19T02:50:43.933Z,84.10
2023-03-19T02:55:47.213Z,84.00
2023-03-19T03:00:52.804Z,84.00
2023-03-19T03:05:57.085Z,83.60
2023-03-19T03:11:00.336Z,83.50
2023-03-19T03:16:05.168Z,83.40
2023-03-19T03:21:08.485Z,83.20
2023-03-19T03:26:11.982Z,83.10
2023-03-19T03:31:16.977Z,82.90
2023-03-19T03:36:20.359Z,82.60
2023-03-19T03:41:23.644Z,82.40
2023-03-19T03:46:28.637Z,82.20
2023-03-19T03:51:32.955Z,82.20
2023-03-19T03:56:36.694Z,82.10
2023-03-19T04:01:41.424Z,82.00
2023-03-19T04:06:45.175Z,81.70
2023-03-19T04:12:02.300Z,81.60
2023-03-19T04:17:07.097Z,81.40
2023-03-19T04:22:10.507Z,81.30
2023-03-19T04:27:14.131Z,81.30
2023-03-19T04:32:19.189Z,81.30
2023-03-19T04:37:22.921Z,81.70
2023-03-19T04:42:33.120Z,81.90
2023-03-19T04:47:45.501Z,82.10
2023-03-19T04:52:49.750Z,82.30
2023-03-19T04:57:53.579Z,82.50
2023-03-19T05:03:03.536Z,83.10
2023-03-19T05:08:08.740Z,83.60
2023-03-19T05:13:12.625Z,84.20
2023-03-19T05:18:23.329Z,84.50
2023-03-19T05:23:26.762Z,85.10
2023-03-19T05:28:40.024Z,85.70
2023-03-19T05:33:44.861Z,86.00
2023-03-19T05:38:48.788Z,86.60
2023-03-19T05:44:00.554Z,86.90
2023-03-19T05:49:25.942Z,87.20
2023-03-19T05:54:29.257Z,87.30
2023-03-19T05:59:42.685Z,87.20
2023-03-19T06:05:01.781Z,86.90
2023-03-19T06:10:08.247Z,86.60
2023-03-19T06:15:12.823Z,86.50
2023-03-19T06:20:23.084Z,86.30
2023-03-19T06:25:27.441Z,86.00
2023-03-19T06:30:31.404Z,85.50
2023-03-19T06:35:38.941Z,85.20
2023-03-19T06:40:42.676Z,85.00
2023-03-19T06:45:47.179Z,84.40
2023-03-19T06:50:51.810Z,83.90
2023-03-19T06:55:56.072Z,83.20
2023-03-19T07:00:59.875Z,82.80
2023-03-19T07:06:05.303Z,81.90
2023-03-19T07:11:08.930Z,81.40
2023-03-19T07:16:12.135Z,81.00
2023-03-19T07:21:17.135Z,80.50
2023-03-19T07:26:20.417Z,80.20
2023-03-19T07:31:24.559Z,79.60
2023-03-19T07:36:29.365Z,79.20
2023-03-19T07:41:32.942Z,78.90
2023-03-19T07:46:36.584Z,78.40
2023-03-19T07:51:41.233Z,78.00
2023-03-19T07:56:44.533Z,77.60
2023-03-19T08:01:48.343Z,76.90
2023-03-19T08:06:53.752Z,76.50
2023-03-19T08:11:57.030Z,76.30
2023-03-19T08:17:00.864Z,76.10
2023-03-19T08:22:06.215Z,75.90
2023-03-19T08:27:10.168Z,75.60
2023-03-19T08:32:13.905Z,75.30
2023-03-19T08:37:18.910Z,74.40
2023-03-19T08:42:23.057Z,73.70
2023-03-19T08:47:26.850Z,72.70
2023-03-19T08:52:32.287Z,71.60
2023-03-19T08:57:36.006Z,70.80
2023-03-19T09:02:40.391Z,70.00
2023-03-19T09:07:45.547Z,69.90
2023-03-19T09:12:48.883Z,70.30
2023-03-19T09:17:52.176Z,70.10
2023-03-19T09:22:56.844Z,70.00
2023-03-19T09:28:00.116Z,70.00
2023-03-19T09:33:03.406Z,70.00
2023-03-19T09:38:08.185Z,69.80
2023-03-19T09:43:40.891Z,69.40
2023-03-19T09:48:52.203Z,68.70
2023-03-19T09:53:59.441Z,67.90
2023-03-19T09:59:03.303Z,67.60
2023-03-19T10:04:25.786Z,67.50
2023-03-19T10:09:43.131Z,66.90
2023-03-19T10:15:15.290Z,66.10
2023-03-19T10:20:26.401Z,65.60
2023-03-19T10:25:34.318Z,65.10
2023-03-19T10:30:38.563Z,64.70
2023-03-19T10:35:45.943Z,64.30
2023-03-19T10:41:04.870Z,63.90
2023-03-19T10:46:13.943Z,64.00
2023-03-19T10:51:20.293Z,64.00
2023-03-19T10:56:27.739Z,64.00
2023-03-19T11:01:35.470Z,64.10
2023-03-19T11:06:42.189Z,64.00
2023-03-19T11:11:50.789Z,63.80
2023-03-19T11:16:58.976Z,63.10
2023-03-19T11:22:09.146Z,62.90
2023-03-19T11:27:13.900Z,63.10
2023-03-19T11:32:34.531Z,63.50
2023-03-19T11:37:54.471Z,63.60
2023-03-19T11:43:38.738Z,63.30
2023-03-19T11:49:07.657Z,63.10
2023-03-19T11:54:22.211Z,63.70
2023-03-19T11:59:47.078Z,64.20
2023-03-19T12:05:10.063Z,64.10
2023-03-19T12:10:31.306Z,64.20
2023-03-19T12:15:46.433Z,64.50
2023-03-19T12:21:00.738Z,63.90
2023-03-19T12:26:06.636Z,63.70
2023-03-19T12:31:28.217Z,63.40
2023-03-19T12:36:35.385Z,64.00
2023-03-19T12:41:43.491Z,64.90
2023-03-19T12:46:59.014Z,65.20
2023-03-19T12:52:10.107Z,65.80
2023-03-19T12:57:20.925Z,67.50
2023-03-19T13:02:32.064Z,69.50
2023-03-19T13:07:44.498Z,70.30
2023-03-19T13:12:51.382Z,71.10
2023-03-19T13:18:04.512Z,71.90
2023-03-19T13:23:09.549Z,72.50
2023-03-19T13:28:19.212Z,72.40
2023-03-19T13:33:24.822Z,73.10
2023-03-19T13:38:32.174Z,73.60
2023-03-19T13:43:54.590Z,74.60
2023-03-19T13:49:10.345Z,76.00
2023-03-19T13:54:18.437Z,77.40
2023-03-19T13:59:27.439Z,79.30
2023-03-19T14:04:33.682Z,81.00
2023-03-19T14:09:42.627Z,82.80
2023-03-19T14:14:49.219Z,85.00
2023-03-19T14:19:55.167Z,86.40
2023-03-19T14:25:14.424Z,87.70
2023-03-19T14:30:30.988Z,88.70
2023-03-19T14:35:40.355Z,89.60
2023-03-19T14:40:47.037Z,90.20
2023-03-19T14:45:58.987Z,90.60
2023-03-19T14:51:22.485Z,90.80
2023-03-19T14:56:28.267Z,91.20
2023-03-19T15:01:34.362Z,91.40
2023-03-19T15:06:42.560Z,91.50
2023-03-19T15:12:11.766Z,91.80
2023-03-19T15:17:21.954Z,92.00
2023-03-19T15:22:32.423Z,92.10
2023-03-19T15:27:36.273Z,92.10
2023-03-19T15:33:02.710Z,92.20
2023-03-19T15:38:10.147Z,92.40
2023-03-19T15:43:14.844Z,92.50
2023-03-19T15:48:22.966Z,92.60
2023-03-19T15:53:32.632Z,92.80
2023-03-19T15:58:41.700Z,92.80
2023-03-19T16:03:47.102Z,93.00
2023-03-19T16:08:54.233Z,93.20
2023-03-19T16:14:02.995Z,93.20
2023-03-19T16:19:06.507Z,93.20
2023-03-19T16:24:24.247Z,93.20
2023-03-19T16:29:28.964Z,93.30
2023-03-19T16:34:40.941Z,93.40
2023-03-19T16:39:56.008Z,93.40
2023-03-19T16:45:03.610Z,93.60
2023-03-19T16:50:07.964Z,93.60
2023-03-19T16:55:20.921Z,93.70
2023-03-19T17:00:26.291Z,93.80
2023-03-19T17:05:31.386Z,93.90
2023-03-19T17:10:38.564Z,94.00
2023-03-19T17:15:43.327Z,94.20
2023-03-19T17:20:52.200Z,94.30
2023-03-19T17:25:57.338Z,94.40
2023-03-19T17:31:00.929Z,94.50
2023-03-19T17:36:04.492Z,94.60
2023-03-19T17:41:16.865Z,94.70
2023-03-19T17:46:23.647Z,94.80
2023-03-19T17:51:27.671Z,94.80
2023-03-19T17:56:32.763Z,94.90
2023-03-19T18:01:36.669Z,95.00
2023-03-19T18:06:44.107Z,95.00
2023-03-19T18:11:48.845Z,95.20
2023-03-19T18:16:52.441Z,95.40
2023-03-19T18:21:56.137Z,95.60
2023-03-19T18:27:01.161Z,95.70
2023-03-19T18:32:07.675Z,95.90
2023-03-19T18:37:16.044Z,96.10
2023-03-19T18:42:21.113Z,96.20
2023-03-19T18:47:24.429Z,96.30
2023-03-19T18:52:27.794Z,96.30
2023-03-19T18:57:35.015Z,96.40
2023-03-19T19:02:38.637Z,96.30
2023-03-19T19:07:42.121Z,96.40
2023-03-19T19:12:59.749Z,96.50
2023-03-19T19:18:07.113Z,96.50
2023-03-19T19:23:11.406Z,96.70
2023-03-19T19:28:21.802Z,96.90
2023-03-19T19:33:28.766Z,97.10
2023-03-19T19:38:32.393Z,97.40
2023-03-19T19:43:37.136Z,97.60
2023-03-19T19:48:40.762Z,97.80
2023-03-19T19:53:44.117Z,98.00
2023-03-19T19:58:51.252Z,98.10
2023-03-19T20:03:54.885Z,98.30
2023-03-19T20:08:58.345Z,98.40
2023-03-19T20:14:03.094Z,98.60
2023-03-19T20:19:07.306Z,98.90
2023-03-19T20:24:10.950Z,99.20
2023-03-19T20:29:16.726Z,99.40
2023-03-19T20:34:36.420Z,99.40
2023-03-19T20:39:42.248Z,99.70
2023-03-19T20:44:47.380Z,99.90
2023-03-19T20:49:51.283Z,99.90
2023-03-19T20:54:54.841Z,99.90
2023-03-19T21:00:03.085Z,99.90
2023-03-19T21:05:07.827Z,99.90
2023-03-19T21:10:22.366Z,99.90
2023-03-19T21:15:27.475Z,99.90
2023-03-19T21:20:32.486Z,99.90
2023-03-19T21:25:37.101Z,99.90
2023-03-19T21:30:45.869Z,99.90
2023-03-19T21:35:49.285Z,99.90
2023-03-19T21:40:55.443Z,99.90
2023-03-19T21:46:04.169Z,99.90
2023-03-19T21:51:16.323Z,99.90
2023-03-19T21:56:23.874Z,99.90
2023-03-19T22:01:28.500Z,99.90
2023-03-19T22:06:32.802Z,99.90
2023-03-19T22:11:38.176Z,99.90
2023-03-19T22:16:44.743Z,99.90
2023-03-19T22:21:49.510Z,99.90
2023-03-19T22:26:58.668Z,99.90
2023-03-19T22:32:03.677Z,99.90
2023-03-19T22:37:23.337Z,99.90
2023-03-19T22:42:28.038Z,99.90
2023-03-19T22:47:36.691Z,99.90
2023-03-19T22:52:40.290Z,99.90
2023-03-19T22:57:43.782Z,99.90
2023-03-19T23:02:54.725Z,99.90
2023-03-19T23:07:58.122Z,99.90
2023-03-19T23:13:01.754Z,99.90
2023-03-19T23:18:16.154Z,99.90
2023-03-19T23:23:19.722Z,99.90
2023-03-19T23:28:25.487Z,99.90
2023-03-19T23:33:31.262Z,99.90
2023-03-19T23:38:34.838Z,99.90
2023-03-19T23:43:38.119Z,99.90
2023-03-19T23:48:43.132Z,99.90
2023-03-19T23:53:47.087Z,99.90
2023-03-19T23:58:53.043Z,99.90
